createdAt,value
2022-11-24T00:00:50.277Z,94907.94
2022-11-24T00:01:52.256Z,94918.81
2022-11-24T00:02:56.579Z,94915.34
2022-11-24T00:04:00.130Z,94907.94
2022-11-24T00:05:02.942Z,94913.38
2022-11-24T00:06:05.982Z,94920.75
2022-11-24T00:07:08.967Z,94923.47
2022-11-24T00:08:12.217Z,94921.91
2022-11-24T00:09:15.130Z,94920.00
2022-11-24T00:10:17.209Z,94925.78
2022-11-24T00:11:22.658Z,94921.53
2022-11-24T00:12:24.497Z,94921.53
2022-11-24T00:13:27.725Z,94924.25
2022-11-24T00:14:30.681Z,94926.19
2022-11-24T00:15:33.045Z,94929.66
2022-11-24T00:16:37.873Z,94933.94
2022-11-24T00:17:39.769Z,94931.97
2022-11-24T00:18:45.797Z,94928.50
2022-11-24T00:19:47.642Z,94929.66
2022-11-24T00:20:53.462Z,94921.53
2022-11-24T00:21:56.343Z,94931.22
2022-11-24T00:22:58.413Z,94929.25
2022-11-24T00:24:01.713Z,94934.69
2022-11-24T00:25:04.047Z,94933.50
2022-11-24T00:26:09.508Z,94930.03
2022-11-24T00:27:11.444Z,94938.94
2022-11-24T00:28:14.419Z,94936.66
2022-11-24T00:29:16.446Z,94944.34
2022-11-24T00:30:19.523Z,94948.25
2022-11-24T00:31:23.758Z,94944.34
2022-11-24T00:32:28.995Z,94950.97
2022-11-24T00:33:31.138Z,94955.66
2022-11-24T00:34:35.686Z,94949.03
2022-11-24T00:35:37.955Z,94955.22
2022-11-24T00:36:41.599Z,94955.97
2022-11-24T00:37:43.523Z,94955.22
2022-11-24T00:38:46.819Z,94952.09
2022-11-24T00:39:48.833Z,94954.81
2022-11-24T00:40:51.876Z,94943.59
2022-11-24T00:41:53.709Z,94955.97
2022-11-24T00:42:56.604Z,94956.78
2022-11-24T00:43:59.230Z,94954.06
2022-11-24T00:45:12.960Z,94950.56
2022-11-24T00:46:15.948Z,94950.56
2022-11-24T00:47:18.991Z,94962.97
2022-11-24T00:48:21.809Z,94961.41
2022-11-24T00:49:24.735Z,94961.41
2022-11-24T00:50:28.133Z,94971.09
2022-11-24T00:51:31.520Z,94964.13
2022-11-24T00:52:33.481Z,94964.47
2022-11-24T00:53:37.126Z,94976.53
2022-11-24T00:54:39.022Z,94973.06
2022-11-24T00:55:41.891Z,94973.06
2022-11-24T00:56:45.049Z,94979.25
2022-11-24T00:57:46.986Z,94969.56
2022-11-24T00:58:50.542Z,94971.88
2022-11-24T00:59:52.459Z,94980.78
2022-11-24T01:00:56.199Z,94991.63
2022-11-24T01:01:58.184Z,94981.97
2022-11-24T01:03:01.123Z,94984.69
2022-11-24T01:04:04.344Z,94990.88
2022-11-24T01:05:07.944Z,94987.41
2022-11-24T01:06:13.105Z,94988.56
2022-11-24T01:07:16.244Z,94993.97
2022-11-24T01:08:18.267Z,94990.09
2022-11-24T01:09:21.195Z,94994.34
2022-11-24T01:10:23.231Z,94997.50
2022-11-24T01:11:28.701Z,95006.41
2022-11-24T01:12:30.720Z,94999.78
2022-11-24T01:13:33.618Z,95000.56
2022-11-24T01:14:35.847Z,95006.00
2022-11-24T01:15:39.558Z,95007.91
2022-11-24T01:16:41.584Z,95017.63
2022-11-24T01:17:44.587Z,95014.91
2022-11-24T01:18:47.017Z,95017.63
2022-11-24T01:19:50.751Z,95010.63
2022-11-24T01:20:52.604Z,95016.44
2022-11-24T01:21:56.935Z,95017.63
2022-11-24T01:22:58.843Z,95014.91
2022-11-24T01:24:01.888Z,95017.97
2022-11-24T01:25:04.494Z,95021.84
2022-11-24T01:26:08.175Z,95021.84
2022-11-24T01:27:10.140Z,95021.09
2022-11-24T01:28:13.169Z,95034.25
2022-11-24T01:29:15.222Z,95015.66
2022-11-24T01:30:18.639Z,95027.28
2022-11-24T01:31:21.060Z,95024.56
2022-11-24T01:32:24.033Z,95038.16
2022-11-24T01:33:26.070Z,95033.91
2022-11-24T01:34:28.987Z,95038.16
2022-11-24T01:35:31.040Z,95033.91
2022-11-24T01:36:34.124Z,95037.38
2022-11-24T01:37:37.335Z,95037.38
2022-11-24T01:38:40.248Z,95042.03
2022-11-24T01:39:42.231Z,95035.84
2022-11-24T01:40:45.296Z,95044.00
2022-11-24T01:41:47.386Z,95043.22
2022-11-24T01:42:52.246Z,95045.94
2022-11-24T01:43:55.428Z,95045.94
2022-11-24T01:45:31.011Z,95047.88
2022-11-24T01:46:42.260Z,95048.28
2022-11-24T01:47:44.525Z,95059.94
2022-11-24T01:48:52.739Z,95056.03
2022-11-24T01:49:59.402Z,95058.72
2022-11-24T01:51:09.518Z,95072.31
2022-11-24T01:52:15.346Z,95062.22
2022-11-24T01:53:19.723Z,95071.16
2022-11-24T01:54:25.733Z,95078.50
2022-11-24T01:55:33.216Z,95080.06
2022-11-24T01:56:40.603Z,95079.28
2022-11-24T01:57:46.619Z,95082.78
2022-11-24T01:58:51.435Z,95085.47
2022-11-24T01:59:57.362Z,95090.91
2022-11-24T02:01:01.679Z,95097.50
2022-11-24T02:02:04.366Z,95085.47
2022-11-24T02:03:09.663Z,95089.34
2022-11-24T02:04:15.119Z,95096.34
2022-11-24T02:05:22.458Z,95096.34
2022-11-24T02:06:27.868Z,95090.16
2022-11-24T02:07:31.507Z,95087.44
2022-11-24T02:08:41.742Z,95084.72
2022-11-24T02:09:50.020Z,95096.34
2022-11-24T02:10:51.897Z,95102.94
2022-11-24T02:11:55.871Z,95097.88
2022-11-24T02:12:59.684Z,95107.19
2022-11-24T02:14:03.109Z,95111.44
2022-11-24T02:15:06.029Z,95105.25
2022-11-24T02:16:11.817Z,95113.41
2022-11-24T02:17:14.794Z,95098.28
2022-11-24T02:18:16.683Z,95113.78
2022-11-24T02:19:28.951Z,95115.34
2022-11-24T02:20:30.847Z,95106.44
2022-11-24T02:21:33.749Z,95116.88
2022-11-24T02:22:44.396Z,95113.41
2022-11-24T02:23:55.929Z,95114.16
2022-11-24T02:25:06.935Z,95118.81
2022-11-24T02:26:20.278Z,95117.25
2022-11-24T02:27:23.598Z,95113.75
2022-11-24T02:28:30.591Z,95123.44
2022-11-24T02:29:32.715Z,95113.00
2022-11-24T02:30:36.923Z,95121.91
2022-11-24T02:31:41.720Z,95121.16
2022-11-24T02:32:44.928Z,95122.31
2022-11-24T02:33:48.684Z,95118.81
2022-11-24T02:35:00.290Z,95123.50
2022-11-24T02:36:02.167Z,95120.78
2022-11-24T02:37:05.019Z,95120.00
2022-11-24T02:38:06.948Z,95120.78
2022-11-24T02:39:11.876Z,95121.53
2022-11-24T02:40:16.603Z,95122.31
2022-11-24T02:41:22.693Z,95125.78
2022-11-24T02:42:27.420Z,95116.88
2022-11-24T02:43:33.692Z,95122.66
2022-11-24T02:44:39.564Z,95122.66
2022-11-24T02:45:42.491Z,95121.16
2022-11-24T02:46:44.496Z,95118.44
2022-11-24T02:47:47.514Z,95123.44
2022-11-24T02:48:49.425Z,95128.88
2022-11-24T02:49:52.327Z,95122.66
2022-11-24T02:50:54.547Z,95125.00
2022-11-24T02:51:57.925Z,95126.94
2022-11-24T02:52:59.864Z,95125.75
2022-11-24T02:54:02.776Z,95119.56
2022-11-24T02:55:05.452Z,95121.84
2022-11-24T02:56:08.621Z,95129.22
2022-11-24T02:57:11.075Z,95126.50
2022-11-24T02:58:15.858Z,95133.50
2022-11-24T02:59:17.838Z,95130.00
2022-11-24T03:00:20.889Z,95132.69
2022-11-24T03:01:22.800Z,95127.28
2022-11-24T03:02:25.760Z,95134.25
2022-11-24T03:03:28.072Z,95130.34
2022-11-24T03:04:31.113Z,95135.78
2022-11-24T03:05:33.230Z,95133.88
2022-11-24T03:06:36.372Z,95128.81
2022-11-24T03:07:38.308Z,95131.53
2022-11-24T03:08:41.280Z,95141.22
2022-11-24T03:09:43.226Z,95142.00
2022-11-24T03:10:46.397Z,95149.38
2022-11-24T03:11:48.384Z,95138.13
2022-11-24T03:12:51.282Z,95151.31
2022-11-24T03:13:54.498Z,95150.56
2022-11-24T03:14:57.438Z,95142.41
2022-11-24T03:15:59.379Z,95149.78
2022-11-24T03:17:02.239Z,95153.25
2022-11-24T03:18:04.269Z,95152.50
2022-11-24T03:19:07.261Z,95151.31
2022-11-24T03:20:10.608Z,95153.63
2022-11-24T03:21:13.489Z,95155.59
2022-11-24T03:22:15.482Z,95150.56
2022-11-24T03:23:18.297Z,95154.44
2022-11-24T03:24:20.249Z,95155.22
2022-11-24T03:25:23.185Z,95160.22
2022-11-24T03:26:26.452Z,95161.41
2022-11-24T03:27:29.413Z,95162.94
2022-11-24T03:28:31.263Z,95162.19
2022-11-24T03:29:35.535Z,95162.94
2022-11-24T03:30:37.959Z,95162.19
2022-11-24T03:31:41.011Z,95166.44
2022-11-24T03:32:43.067Z,95167.22
2022-11-24T03:33:45.937Z,95163.72
2022-11-24T03:34:47.861Z,95159.06
2022-11-24T03:35:50.705Z,95164.50
2022-11-24T03:36:52.602Z,95169.16
2022-11-24T03:37:55.472Z,95167.22
2022-11-24T03:38:57.382Z,95166.03
2022-11-24T03:40:00.319Z,95165.25
2022-11-24T03:41:02.249Z,95173.41
2022-11-24T03:42:05.476Z,95172.63
2022-11-24T03:43:07.342Z,95169.94
2022-11-24T03:44:10.237Z,95164.50
2022-11-24T03:45:45.371Z,95176.88
2022-11-24T03:46:37.938Z,95176.88
2022-11-24T03:47:39.890Z,95174.94
2022-11-24T03:48:42.971Z,95175.72
2022-11-24T03:49:45.744Z,95175.72
2022-11-24T03:50:54.430Z,95167.56
2022-11-24T03:51:56.342Z,95185.41
2022-11-24T03:52:59.449Z,95177.25
2022-11-24T03:54:01.404Z,95173.00
2022-11-24T03:55:04.304Z,95179.19
2022-11-24T03:56:06.808Z,95183.88
2022-11-24T03:57:09.745Z,95184.63
2022-11-24T03:58:11.936Z,95183.88
2022-11-24T03:59:14.787Z,95190.06
2022-11-24T04:00:18.516Z,95183.88
2022-11-24T04:01:21.574Z,95190.81
2022-11-24T04:02:23.494Z,95187.34
2022-11-24T04:03:26.780Z,95181.16
2022-11-24T04:04:28.788Z,95190.06
2022-11-24T04:05:33.139Z,95185.78
2022-11-24T04:06:35.212Z,95186.59
2022-11-24T04:07:38.262Z,95186.59
2022-11-24T04:08:40.339Z,95179.97
2022-11-24T04:09:43.328Z,95188.09
2022-11-24T04:10:45.287Z,95191.59
2022-11-24T04:12:05.680Z,95185.41
2022-11-24T04:13:13.388Z,95180.72
2022-11-24T04:14:15.521Z,95188.88
2022-11-24T04:15:21.146Z,95188.88
2022-11-24T04:16:23.064Z,95185.00
2022-11-24T04:17:25.979Z,95187.72
2022-11-24T04:18:28.825Z,95187.72
2022-11-24T04:19:30.916Z,95191.19
2022-11-24T04:20:34.142Z,95188.09
2022-11-24T04:21:36.171Z,95195.09
2022-11-24T04:22:39.059Z,95197.81
2022-11-24T04:23:40.939Z,95193.91
2022-11-24T04:24:43.993Z,95200.09
2022-11-24T04:25:46.062Z,95189.25
2022-11-24T04:26:48.949Z,95193.91
2022-11-24T04:27:52.213Z,95209.00
2022-11-24T04:28:55.195Z,95201.66
2022-11-24T04:29:57.090Z,95200.88
2022-11-24T04:31:04.399Z,95202.41
2022-11-24T04:32:06.431Z,95207.84
2022-11-24T04:33:09.287Z,95206.28
2022-11-24T04:34:11.243Z,95211.72
2022-11-24T04:35:14.554Z,95211.72
2022-11-24T04:36:16.518Z,95211.72
2022-11-24T04:37:19.418Z,95204.78
2022-11-24T04:39:22.827Z,95209.44
2022-11-24T04:39:44.955Z,95207.88
2022-11-24T04:40:47.796Z,95209.44
2022-11-24T04:41:49.796Z,95209.44
2022-11-24T04:42:56.061Z,95211.72
2022-11-24T04:43:57.894Z,95209.44
2022-11-24T04:45:00.734Z,95210.97
2022-11-24T04:46:04.031Z,95211.72
2022-11-24T04:47:07.019Z,95210.19
2022-11-24T04:48:08.919Z,95213.69
2022-11-24T04:49:12.038Z,95216.41
2022-11-24T04:50:14.053Z,95211.72
2022-11-24T04:51:17.074Z,95213.28
2022-11-24T04:52:20.796Z,95213.28
2022-11-24T04:53:23.888Z,95222.97
2022-11-24T04:54:25.774Z,95225.66
2022-11-24T04:55:28.652Z,95219.09
2022-11-24T04:56:30.685Z,95225.66
2022-11-24T04:57:33.589Z,95227.22
2022-11-24T04:58:35.566Z,95231.91
2022-11-24T04:59:38.816Z,95232.66
2022-11-24T05:00:41.390Z,95229.19
2022-11-24T05:01:47.096Z,95227.22
2022-11-24T05:02:49.085Z,95228.38
2022-11-24T05:03:54.706Z,95229.94
2022-11-24T05:04:56.638Z,95233.81
2022-11-24T05:06:00.022Z,95234.63
2022-11-24T05:07:02.000Z,95238.09
2022-11-24T05:08:05.443Z,95237.31
2022-11-24T05:09:07.938Z,95239.25
2022-11-24T05:10:29.043Z,95246.25
2022-11-24T05:11:32.223Z,95243.53
2022-11-24T05:12:34.157Z,95248.53
2022-11-24T05:13:37.075Z,95240.38
2022-11-24T05:14:38.944Z,95243.88
2022-11-24T05:15:43.023Z,95250.84
2022-11-24T05:16:46.554Z,95246.59
2022-11-24T05:17:49.447Z,95247.38
2022-11-24T05:18:51.431Z,95252.81
2022-11-24T05:19:54.313Z,95254.34
2022-11-24T05:20:57.461Z,95259.00
2022-11-24T05:22:00.394Z,95260.56
2022-11-24T05:23:03.537Z,95255.13
2022-11-24T05:24:07.169Z,95268.69
2022-11-24T05:25:09.608Z,95262.09
2022-11-24T05:26:12.599Z,95264.03
2022-11-24T05:27:14.886Z,95269.47
2022-11-24T05:28:19.031Z,95270.22
2022-11-24T05:29:20.867Z,95267.50
2022-11-24T05:30:24.435Z,95259.38
2022-11-24T05:31:26.387Z,95268.28
2022-11-24T05:32:30.670Z,95278.38
2022-11-24T05:33:33.374Z,95269.47
2022-11-24T05:34:36.504Z,95271.00
2022-11-24T05:35:39.670Z,95271.38
2022-11-24T05:36:54.128Z,95276.03
2022-11-24T05:37:59.059Z,95267.13
2022-11-24T05:39:01.000Z,95276.78
2022-11-24T05:40:04.197Z,95272.13
2022-11-24T05:41:06.639Z,95273.69
2022-11-24T05:42:23.898Z,95263.59
2022-11-24T05:43:26.931Z,95283.00
2022-11-24T05:44:28.767Z,95271.38
2022-11-24T05:45:31.669Z,95272.13
2022-11-24T05:46:33.537Z,95272.13
2022-11-24T05:47:38.689Z,95274.84
2022-11-24T05:48:41.619Z,95279.13
2022-11-24T05:49:43.768Z,95278.34
2022-11-24T05:50:46.649Z,95279.88
2022-11-24T05:51:48.474Z,95278.69
2022-11-24T05:52:51.564Z,95267.06
2022-11-24T05:53:53.438Z,95286.06
2022-11-24T05:54:56.344Z,95286.06
2022-11-24T05:55:58.258Z,95292.28
2022-11-24T05:57:01.103Z,95286.84
2022-11-24T05:58:05.251Z,95280.66
2022-11-24T05:59:09.984Z,95292.28
2022-11-24T06:00:13.330Z,95296.94
2022-11-24T06:01:16.246Z,95296.19
2022-11-24T06:02:19.161Z,95291.50
2022-11-24T06:03:23.634Z,95293.06
2022-11-24T06:04:25.603Z,95297.31
2022-11-24T06:05:30.041Z,95297.03
2022-11-24T06:06:31.917Z,95297.91
2022-11-24T06:07:34.973Z,95294.44
2022-11-24T06:08:37.967Z,95302.25
2022-11-24T06:09:41.524Z,95301.13
2022-11-24T06:10:44.510Z,95313.22
2022-11-24T06:11:47.687Z,95306.34
2022-11-24T06:12:51.427Z,95311.84
2022-11-24T06:13:53.359Z,95303.78
2022-11-24T06:14:56.511Z,95307.34
2022-11-24T06:15:59.190Z,95318.69
2022-11-24T06:17:02.579Z,95314.47
2022-11-24T06:18:05.761Z,95323.84
2022-11-24T06:19:09.663Z,95314.56
2022-11-24T06:20:13.104Z,95322.34
2022-11-24T06:21:17.235Z,95318.50
2022-11-24T06:22:20.153Z,95309.97
2022-11-24T06:23:22.013Z,95307.66
2022-11-24T06:24:25.027Z,95318.50
2022-11-24T06:25:27.320Z,95316.97
2022-11-24T06:26:30.774Z,95310.03
2022-11-24T06:27:32.749Z,95316.63
2022-11-24T06:28:35.855Z,95323.25
2022-11-24T06:29:37.999Z,95318.97
2022-11-24T06:30:40.932Z,95316.25
2022-11-24T06:31:42.970Z,95323.25
2022-11-24T06:32:49.651Z,95336.81
2022-11-24T06:33:52.190Z,95325.59
2022-11-24T06:34:56.446Z,95324.81
2022-11-24T06:36:01.595Z,95331.03
2022-11-24T06:37:04.536Z,95325.97
2022-11-24T06:38:07.555Z,95333.38
2022-11-24T06:39:11.508Z,95333.38
2022-11-24T06:40:14.434Z,95338.78
2022-11-24T06:41:16.741Z,95337.59
2022-11-24T06:42:19.732Z,95334.13
2022-11-24T06:43:23.220Z,95340.75
2022-11-24T06:44:26.087Z,95339.94
2022-11-24T06:45:28.231Z,95336.47
2022-11-24T06:46:31.383Z,95332.59
2022-11-24T06:47:33.240Z,95339.19
2022-11-24T06:48:36.488Z,95337.25
2022-11-24T06:49:39.375Z,95337.66
2022-11-24T06:50:42.641Z,95341.16
2022-11-24T06:51:46.125Z,95342.66
2022-11-24T06:52:48.131Z,95339.19
2022-11-24T06:53:51.046Z,95343.47
2022-11-24T06:54:54.168Z,95338.78
2022-11-24T06:55:58.894Z,95343.47
2022-11-24T06:57:01.833Z,95342.66
2022-11-24T06:58:04.209Z,95344.22
2022-11-24T06:59:07.068Z,95338.78
2022-11-24T07:00:10.795Z,95344.22
2022-11-24T07:01:15.922Z,95337.25
2022-11-24T07:02:18.870Z,95346.94
2022-11-24T07:03:20.856Z,95336.06
2022-11-24T07:04:23.857Z,95340.31
2022-11-24T07:05:25.973Z,95348.47
2022-11-24T07:06:30.261Z,95341.13
2022-11-24T07:07:33.468Z,95347.31
2022-11-24T07:08:35.451Z,95345.75
2022-11-24T07:09:38.476Z,95346.56
2022-11-24T07:10:40.596Z,95351.19
2022-11-24T07:11:43.576Z,95351.19
2022-11-24T07:12:45.614Z,95346.56
2022-11-24T07:13:49.289Z,95353.91
2022-11-24T07:14:51.215Z,95344.22
2022-11-24T07:15:54.195Z,95341.88
2022-11-24T07:16:56.141Z,95345.75
2022-11-24T07:17:59.231Z,95345.75
2022-11-24T07:19:01.412Z,95345.38
2022-11-24T07:20:05.127Z,95340.31
2022-11-24T07:21:07.578Z,95341.03
2022-11-24T07:22:11.768Z,95347.19
2022-11-24T07:23:13.750Z,95341.72
2022-11-24T07:24:16.826Z,95339.38
2022-11-24T07:25:18.704Z,95342.84
2022-11-24T07:26:22.251Z,95341.25
2022-11-24T07:27:24.238Z,95337.72
2022-11-24T07:28:27.235Z,95341.56
2022-11-24T07:29:30.300Z,95348.56
2022-11-24T07:30:32.435Z,95348.50
2022-11-24T07:31:35.555Z,95354.72
2022-11-24T07:32:37.447Z,95352.34
2022-11-24T07:33:40.714Z,95356.25
2022-11-24T07:34:42.595Z,95352.34
2022-11-24T07:35:45.580Z,95355.06
2022-11-24T07:36:48.674Z,95358.56
2022-11-24T07:37:55.503Z,95363.59
2022-11-24T07:38:58.807Z,95358.16
2022-11-24T07:40:00.718Z,95363.22
2022-11-24T07:41:04.346Z,95370.22
2022-11-24T07:42:08.482Z,95366.31
2022-11-24T07:43:13.520Z,95363.59
2022-11-24T07:44:20.191Z,95373.69
2022-11-24T07:45:22.079Z,95370.97
2022-11-24T07:46:25.076Z,95371.75
2022-11-24T07:47:27.142Z,95368.63
2022-11-24T07:48:30.470Z,95373.31
2022-11-24T07:49:33.348Z,95374.06
2022-11-24T07:50:35.304Z,95368.63
2022-11-24T07:51:38.168Z,95363.19
2022-11-24T07:52:40.201Z,95369.41
2022-11-24T07:53:44.897Z,95367.88
2022-11-24T07:54:47.790Z,95373.31
2022-11-24T07:55:54.321Z,95367.88
2022-11-24T07:56:57.736Z,95373.31
2022-11-24T07:58:01.526Z,95373.31
2022-11-24T07:59:04.905Z,95363.19
2022-11-24T08:00:09.094Z,95367.88
2022-11-24T08:01:15.568Z,95365.16
2022-11-24T08:02:38.598Z,95363.97
2022-11-24T08:03:42.437Z,95372.09
2022-11-24T08:04:45.611Z,95365.16
2022-11-24T08:06:22.466Z,95369.41
2022-11-24T08:07:17.289Z,95369.41
2022-11-24T08:08:19.174Z,95369.41
2022-11-24T08:09:23.491Z,95357.75
2022-11-24T08:10:25.816Z,95358.53
2022-11-24T08:11:31.321Z,95357.75
2022-11-24T08:12:33.217Z,95361.25
2022-11-24T08:13:36.472Z,95368.22
2022-11-24T08:14:38.593Z,95360.06
2022-11-24T08:15:41.475Z,95360.84
2022-11-24T08:16:44.342Z,95368.59
2022-11-24T08:17:46.232Z,95368.59
2022-11-24T08:18:51.667Z,95374.38
2022-11-24T08:19:54.603Z,95360.78
2022-11-24T08:20:57.673Z,95365.47
2022-11-24T08:22:00.657Z,95367.78
2022-11-24T08:23:02.630Z,95372.03
2022-11-24T08:24:06.296Z,95373.97
2022-11-24T08:25:14.349Z,95380.97
2022-11-24T08:26:18.915Z,95381.38
2022-11-24T08:27:21.884Z,95375.53
2022-11-24T08:28:24.115Z,95377.88
2022-11-24T08:29:29.134Z,95386.81
2022-11-24T08:30:31.641Z,95381.38
2022-11-24T08:31:36.056Z,95387.97
2022-11-24T08:32:39.112Z,95383.72
2022-11-24T08:33:41.954Z,95375.56
2022-11-24T08:34:45.063Z,95374.81
2022-11-24T08:35:46.939Z,95372.84
2022-11-24T08:36:49.804Z,95378.28
2022-11-24T08:37:51.673Z,95381.00
2022-11-24T08:38:58.517Z,95379.47
2022-11-24T08:40:01.507Z,95377.09
2022-11-24T08:41:07.126Z,95389.16
2022-11-24T08:42:10.051Z,95376.75
2022-11-24T08:43:11.979Z,95384.50
2022-11-24T08:44:15.949Z,95376.69
2022-11-24T08:45:21.236Z,95377.88
2022-11-24T08:46:25.113Z,95374.75
2022-11-24T08:47:27.039Z,95370.88
2022-11-24T08:48:30.479Z,95376.31
2022-11-24T08:49:33.576Z,95377.47
2022-11-24T08:50:37.545Z,95370.09
2022-11-24T08:51:40.452Z,95372.03
2022-11-24T08:52:42.388Z,95369.31
2022-11-24T08:53:45.307Z,95366.19
2022-11-24T08:54:48.396Z,95370.88
2022-11-24T08:55:50.412Z,95372.41
2022-11-24T08:56:54.837Z,95371.63
2022-11-24T08:57:57.668Z,95370.88
2022-11-24T08:59:00.692Z,95376.31
2022-11-24T09:00:04.369Z,95372.03
2022-11-24T09:01:08.659Z,95368.91
2022-11-24T09:02:11.957Z,95370.88
2022-11-24T09:03:15.506Z,95374.75
2022-11-24T09:04:18.474Z,95371.63
2022-11-24T09:05:50.012Z,95365.44
2022-11-24T09:06:43.214Z,95372.41
2022-11-24T09:07:45.140Z,95374.72
2022-11-24T09:08:48.608Z,95374.72
2022-11-24T09:09:51.557Z,95372.75
2022-11-24T09:10:54.731Z,95377.03
2022-11-24T09:11:59.123Z,95377.38
2022-11-24T09:13:01.039Z,95369.22
2022-11-24T09:14:04.281Z,95376.22
2022-11-24T09:15:08.138Z,95376.22
2022-11-24T09:16:12.396Z,95372.31
2022-11-24T09:17:15.354Z,95376.59
2022-11-24T09:18:17.247Z,95369.94
2022-11-24T09:19:20.546Z,95379.31
2022-11-24T09:20:23.406Z,95379.31
2022-11-24T09:21:25.668Z,95380.06
2022-11-24T09:22:28.622Z,95382.78
2022-11-24T09:23:31.557Z,95383.19
2022-11-24T09:24:34.464Z,95383.56
2022-11-24T09:25:36.356Z,95386.28
2022-11-24T09:26:46.170Z,95387.81
2022-11-24T09:27:51.072Z,95387.81
2022-11-24T09:28:55.950Z,95387.81
2022-11-24T09:29:57.840Z,95380.44
2022-11-24T09:31:04.627Z,95389.34
2022-11-24T09:32:07.559Z,95381.97
2022-11-24T09:33:09.544Z,95379.25
2022-11-24T09:34:14.925Z,95379.25
2022-11-24T09:35:17.161Z,95374.59
2022-11-24T09:36:21.035Z,95381.56
2022-11-24T09:37:28.117Z,95380.03
2022-11-24T09:38:31.728Z,95392.44
2022-11-24T09:39:34.904Z,95387.00
2022-11-24T09:40:37.079Z,95385.81
2022-11-24T09:41:49.595Z,95384.66
2022-11-24T09:43:01.693Z,95388.91
2022-11-24T09:44:11.538Z,95386.19
2022-11-24T09:45:57.009Z,95385.78
2022-11-24T09:47:02.616Z,95375.66
2022-11-24T09:48:12.341Z,95384.59
2022-11-24T09:49:19.872Z,95383.44
2022-11-24T09:50:23.810Z,95385.75
2022-11-24T09:51:31.851Z,95385.75
2022-11-24T09:52:41.519Z,95392.34
2022-11-24T09:53:48.605Z,95377.59
2022-11-24T09:54:53.825Z,95393.91
2022-11-24T09:55:59.745Z,95384.19
2022-11-24T09:57:05.807Z,95386.50
2022-11-24T09:58:43.411Z,95394.69
2022-11-24T09:59:45.324Z,95398.56
2022-11-24T10:00:51.525Z,95407.91
2022-11-24T10:01:55.826Z,95402.47
2022-11-24T10:02:59.114Z,95411.03
2022-11-24T10:04:06.295Z,95410.66
2022-11-24T10:05:09.068Z,95414.56
2022-11-24T10:06:23.219Z,95404.84
2022-11-24T10:07:31.557Z,95414.19
2022-11-24T10:08:48.110Z,95414.59
2022-11-24T10:10:00.410Z,95416.53
2022-11-24T10:11:11.895Z,95418.91
2022-11-24T10:12:35.656Z,95432.50
2022-11-24T10:14:08.215Z,95430.59
2022-11-24T10:15:38.664Z,95432.94
2022-11-24T10:16:51.999Z,95438.38
2022-11-24T10:18:17.006Z,95434.91
2022-11-24T10:19:36.984Z,95440.72
2022-11-24T10:20:53.274Z,95437.66
2022-11-24T10:22:10.246Z,95441.56
2022-11-24T10:23:39.955Z,95449.34
2022-11-24T10:25:08.287Z,95448.19
2022-11-24T10:26:19.160Z,95449.41
2022-11-24T10:27:27.892Z,95455.63
2022-11-24T10:28:40.894Z,95455.63
2022-11-24T10:29:46.562Z,95451.38
2022-11-24T10:30:50.923Z,95448.66
2022-11-24T10:31:56.195Z,95450.19
2022-11-24T10:33:04.976Z,95454.88
2022-11-24T10:34:13.962Z,95454.09
2022-11-24T10:35:20.098Z,95454.09
2022-11-24T10:36:29.964Z,95454.09
2022-11-24T10:37:36.548Z,95454.09
2022-11-24T10:38:46.756Z,95454.09
2022-11-24T10:40:00.195Z,95445.59
2022-11-24T10:41:08.768Z,95444.81
2022-11-24T10:42:19.530Z,95437.44
2022-11-24T10:43:22.577Z,95431.63
2022-11-24T10:44:24.788Z,95440.97
2022-11-24T10:45:30.453Z,95442.13
2022-11-24T10:46:39.033Z,95442.13
2022-11-24T10:47:43.446Z,95443.69
2022-11-24T10:48:51.717Z,95446.41
2022-11-24T10:50:01.119Z,95442.50
2022-11-24T10:51:27.965Z,95444.06
2022-11-24T10:52:35.735Z,95442.88
2022-11-24T10:53:42.913Z,95441.72
2022-11-24T10:54:56.941Z,95450.19
2022-11-24T10:56:01.028Z,95456.81
2022-11-24T10:57:05.323Z,95454.09
2022-11-24T10:58:17.329Z,95456.38
2022-11-24T10:59:39.013Z,95451.72
2022-11-24T11:00:42.395Z,95449.78
2022-11-24T11:01:45.408Z,95463.38
2022-11-24T11:02:49.671Z,95458.34
2022-11-24T11:03:54.804Z,95459.53
2022-11-24T11:04:57.757Z,95463.44
2022-11-24T11:06:04.455Z,95463.44
2022-11-24T11:07:18.554Z,95462.25
2022-11-24T11:08:27.148Z,95454.88
2022-11-24T11:09:29.056Z,95464.16
2022-11-24T11:10:32.021Z,95464.16
2022-11-24T11:11:35.947Z,95466.88
2022-11-24T11:12:45.402Z,95466.50
2022-11-24T11:14:01.573Z,95459.09
2022-11-24T11:15:25.321Z,95457.94
2022-11-24T11:16:38.099Z,95461.81
2022-11-24T11:17:41.295Z,95463.78
2022-11-24T11:18:49.814Z,95467.25
2022-11-24T11:20:00.268Z,95463.78
2022-11-24T11:21:05.039Z,95462.59
2022-11-24T11:22:17.231Z,95459.88
2022-11-24T11:23:27.697Z,95457.16
2022-11-24T11:24:31.127Z,95461.81
2022-11-24T11:25:38.136Z,95465.72
2022-11-24T11:26:42.304Z,95469.97
2022-11-24T11:27:45.068Z,95469.97
2022-11-24T11:34:48.946Z,95466.47
2022-11-24T11:35:52.584Z,95473.44
2022-11-24T11:36:57.157Z,95468.00
2022-11-24T11:38:02.955Z,95465.28
2022-11-24T11:39:06.382Z,95474.97
2022-11-24T11:40:16.338Z,95474.97
2022-11-24T11:41:23.596Z,95473.44
2022-11-24T11:44:06.030Z,95473.44
2022-11-24T11:45:15.078Z,95474.97
2022-11-24T11:46:17.240Z,95466.47
2022-11-24T11:47:28.330Z,95474.63
2022-11-24T11:48:42.684Z,95464.91
2022-11-24T11:49:48.686Z,95471.53
2022-11-24T11:52:46.640Z,95471.91
2022-11-24T11:53:56.684Z,95469.19
2022-11-24T11:55:34.645Z,95474.63
2022-11-24T11:56:44.345Z,95473.44
2022-11-24T11:57:56.719Z,95469.53
2022-11-24T11:59:41.357Z,95464.09
2022-11-24T12:00:51.842Z,95475.75
2022-11-24T12:02:16.787Z,95465.66
2022-11-24T12:03:51.560Z,95476.53
2022-11-24T12:04:57.342Z,95474.19
2022-11-24T12:06:15.345Z,95467.97
2022-11-24T12:07:40.530Z,95477.66
2022-11-24T12:09:18.715Z,95469.50
2022-11-24T12:10:24.322Z,95475.72
2022-11-24T12:11:34.190Z,95471.03
2022-11-24T12:13:04.221Z,95478.44
2022-11-24T12:14:24.078Z,95475.72
2022-11-24T12:15:36.462Z,95477.28
2022-11-24T12:16:47.702Z,95483.06
2022-11-24T12:17:56.164Z,95475.31
2022-11-24T12:19:15.980Z,95488.50
2022-11-24T12:20:41.168Z,95484.25
2022-11-24T12:21:53.507Z,95485.44
2022-11-24T12:23:05.087Z,95483.47
2022-11-24T12:24:15.112Z,95480.75
2022-11-24T12:25:26.589Z,95482.72
2022-11-24T12:26:39.976Z,95484.25
2022-11-24T12:27:56.158Z,95486.94
2022-11-24T12:29:11.646Z,95485.38
2022-11-24T12:30:17.192Z,95483.41
2022-11-24T12:31:28.575Z,95489.22
2022-11-24T12:32:49.425Z,95488.06
2022-11-24T12:34:11.657Z,95483.41
2022-11-24T12:35:23.683Z,95477.97
2022-11-24T12:36:41.838Z,95485.28
2022-11-24T12:37:56.402Z,95487.63
2022-11-24T12:39:06.981Z,95486.44
2022-11-24T12:40:16.795Z,95489.56
2022-11-24T12:41:44.136Z,95485.28
2022-11-24T12:42:56.276Z,95487.25
2022-11-24T12:44:01.392Z,95489.56
2022-11-24T12:45:15.740Z,95482.56
2022-11-24T12:46:24.322Z,95485.28
2022-11-24T12:47:39.742Z,95488.81
2022-11-24T12:48:57.231Z,95488.00
2022-11-24T12:50:07.136Z,95492.69
2022-11-24T12:51:18.514Z,95492.69
2022-11-24T12:52:26.341Z,95488.81
2022-11-24T12:53:33.036Z,95478.69
2022-11-24T12:54:40.433Z,95477.94
2022-11-24T12:55:44.890Z,95479.47
2022-11-24T12:56:54.371Z,95489.56
2022-11-24T12:58:10.654Z,95487.63
2022-11-24T12:59:26.335Z,95486.09